Strona główna
METAR-TAF:

METAR-TAF

Lotnisko :

Port lotniczy Trang

Trang, Tajlandia

Szerokość geograficzna: 07-31N, Długość geograficzna: 099-37E, wysokość: 14 m

Aktualna obserwacja pogody

Raport powstał 37 minut temu, godzina 00:00 UTC
Wiatr 3 kt od północ
Temperatura 23°C
Wilgotność 94%
Ciśnienie 1009 hPa
Widzialność: 8000 m
Mało chmury na wysokości 2000 ft

METAR: VTST 230000Z 01003KT 8000 FEW020 23/22 Q1009 NOSIG

czas: 07:37 (00:37 UTC)

Prognoza

Raport powstał 1 godzina i 37 minut temu, godzina 23:00 UTC
Prognoza ważna od 23 godzina 00 UTC do 23 godzina 24 UTC
Wiatr 5 kt od wschodnio-północny wschód
Widzialność 10 km lub więcej
Mało chmury na wysokości 2000 ft
Stopniowe zmiany
od 23 godzina 01 UTC do 23 godzina 03 UTC
Wiatr 12 kt od wschód
Stopniowe zmiany
od 23 godzina 12 UTC do 23 godzina 14 UTC
Wiatr 5 kt od wschodnio-północny wschód

TAF: VTST 222300Z 2300/2324 06005KT 9999 FEW020 BECMG 2301/2303 10012KT BECMG 2312/2314 06005KT

Obserwacja i prognoza pogody dla ponad 4000 lotnisk (raport METAR i TAF).

Dostępne stacje oznaczono żółtymi i czerwonymi punktami na mapie.

Najedź kursorem aby zobaczyć nazwę stacji.

Kliknij aby zobaczyć obserwacje i prognozy pogody.

Aby zmienić mapę: kliknij na zielony przycisk z czarnym krzyżykiem, aby powiększyć; na zielony przycisk z myślnikiem, aby pomniejszyć; na zielone strzałki, aby przejść do map sąsiednich.


METAR-TAF: